createdAt,value
2018-10-03T00:00:47.347Z,13.40
2018-10-03T00:03:15.790Z,13.40
2018-10-03T00:05:44.211Z,13.40
2018-10-03T00:08:12.728Z,13.40
2018-10-03T00:10:41.184Z,13.40
2018-10-03T00:13:09.630Z,13.30
2018-10-03T00:15:38.223Z,13.30
2018-10-03T00:18:06.669Z,13.30
2018-10-03T00:20:35.107Z,13.20
2018-10-03T00:23:03.555Z,13.10
2018-10-03T00:25:32.013Z,13.10
2018-10-03T00:28:00.430Z,13.10
2018-10-03T00:30:28.886Z,13.00
2018-10-03T00:32:57.342Z,13.00
2018-10-03T00:35:25.793Z,13.00
2018-10-03T00:37:54.231Z,13.00
2018-10-03T00:40:22.687Z,12.90
2018-10-03T00:42:51.126Z,12.90
2018-10-03T00:45:19.577Z,12.90
2018-10-03T00:47:48.022Z,12.90
2018-10-03T00:50:16.490Z,12.80
2018-10-03T00:52:44.910Z,12.80
2018-10-03T00:55:13.346Z,12.80
2018-10-03T00:57:41.810Z,12.70
2018-10-03T01:00:10.250Z,12.70
2018-10-03T01:02:38.793Z,12.60
2018-10-03T01:05:07.304Z,12.70
2018-10-03T01:07:35.746Z,12.60
2018-10-03T01:10:04.550Z,12.70
2018-10-03T01:12:33.015Z,12.60
2018-10-03T01:15:01.456Z,12.60
2018-10-03T01:17:29.881Z,12.60
2018-10-03T01:19:58.347Z,12.60
2018-10-03T01:22:26.798Z,12.60
2018-10-03T01:24:55.260Z,12.50
2018-10-03T01:27:23.800Z,12.50
2018-10-03T01:29:52.250Z,12.50
2018-10-03T01:32:20.681Z,12.50
2018-10-03T01:34:49.138Z,12.40
2018-10-03T01:37:17.548Z,12.40
2018-10-03T01:39:46.050Z,12.40
2018-10-03T01:42:14.475Z,12.40
2018-10-03T01:44:42.990Z,12.40
2018-10-03T01:47:11.414Z,12.50
2018-10-03T01:49:39.862Z,12.40
2018-10-03T01:52:08.338Z,12.40
2018-10-03T01:54:36.799Z,12.40
2018-10-03T01:57:05.284Z,12.40
2018-10-03T01:59:33.789Z,12.30
2018-10-03T02:02:02.237Z,12.30
2018-10-03T02:04:30.660Z,12.30
2018-10-03T02:06:59.123Z,12.30
2018-10-03T02:09:27.587Z,12.30
2018-10-03T02:11:56.039Z,12.30
2018-10-03T02:14:24.439Z,12.20
2018-10-03T02:16:52.886Z,12.20
2018-10-03T02:19:21.305Z,12.20
2018-10-03T02:21:49.815Z,12.20
2018-10-03T02:24:18.368Z,12.20
2018-10-03T02:26:46.862Z,12.10
2018-10-03T02:29:15.357Z,12.20
2018-10-03T02:31:43.796Z,12.10
2018-10-03T02:34:12.273Z,12.10
2018-10-03T02:36:40.692Z,12.10
2018-10-03T02:39:09.761Z,12.10
2018-10-03T02:41:38.214Z,12.00
2018-10-03T02:44:06.789Z,11.90
2018-10-03T02:46:35.233Z,11.90
2018-10-03T02:49:04.011Z,11.90
2018-10-03T02:51:32.954Z,12.00
2018-10-03T02:54:01.409Z,11.90
2018-10-03T02:56:29.849Z,11.90
2018-10-03T02:58:58.299Z,11.90
2018-10-03T03:01:26.735Z,11.90
2018-10-03T03:03:55.231Z,11.90
2018-10-03T03:06:23.675Z,12.00
2018-10-03T03:08:52.155Z,11.90
2018-10-03T03:11:20.586Z,11.90
2018-10-03T03:13:49.047Z,11.80
2018-10-03T03:16:17.509Z,11.90
2018-10-03T03:18:45.980Z,11.90
2018-10-03T03:21:14.445Z,11.90
2018-10-03T03:23:42.939Z,11.90
2018-10-03T03:26:11.363Z,11.80
2018-10-03T03:28:39.797Z,11.80
2018-10-03T03:31:08.319Z,11.90
2018-10-03T03:33:36.780Z,11.80
2018-10-03T03:36:05.243Z,11.90
2018-10-03T03:38:33.731Z,11.90
2018-10-03T03:41:02.296Z,11.90
2018-10-03T03:43:30.815Z,11.90
2018-10-03T03:45:59.323Z,11.90
2018-10-03T03:48:27.772Z,11.90
2018-10-03T03:50:56.223Z,11.90
2018-10-03T03:53:24.693Z,12.00
2018-10-03T03:55:53.147Z,12.00
2018-10-03T03:58:21.592Z,12.00
2018-10-03T04:00:50.041Z,12.10
2018-10-03T04:03:18.482Z,12.10
2018-10-03T04:05:46.949Z,12.10
2018-10-03T04:08:15.499Z,12.10
2018-10-03T04:10:43.935Z,12.00
2018-10-03T04:13:12.554Z,12.00
2018-10-03T04:15:41.002Z,11.90
2018-10-03T04:18:09.451Z,11.90
2018-10-03T04:20:37.888Z,11.80
2018-10-03T04:23:06.349Z,11.80
2018-10-03T04:25:34.773Z,11.70
2018-10-03T04:28:03.359Z,11.70
2018-10-03T04:30:31.893Z,11.70
2018-10-03T04:33:00.330Z,11.70
2018-10-03T04:35:28.789Z,11.60
2018-10-03T04:37:57.239Z,11.60
2018-10-03T04:40:25.714Z,11.60
2018-10-03T04:42:54.188Z,11.50
2018-10-03T04:45:22.642Z,11.50
2018-10-03T04:47:51.106Z,11.50
2018-10-03T04:50:19.625Z,11.50
2018-10-03T04:52:48.047Z,11.50
2018-10-03T04:55:16.485Z,11.50
2018-10-03T04:57:44.894Z,11.50
2018-10-03T05:00:13.374Z,11.50
2018-10-03T05:02:41.891Z,11.50
2018-10-03T05:05:10.581Z,11.50
2018-10-03T05:07:39.105Z,11.50
2018-10-03T05:10:07.546Z,11.50
2018-10-03T05:12:36.034Z,11.50
2018-10-03T05:15:04.682Z,11.60
2018-10-03T05:17:33.095Z,11.60
2018-10-03T05:20:01.689Z,11.70
2018-10-03T05:22:30.111Z,11.60
2018-10-03T05:24:58.602Z,11.60
2018-10-03T05:27:27.110Z,11.60
2018-10-03T05:29:55.581Z,11.60
2018-10-03T05:32:24.053Z,11.60
2018-10-03T05:34:52.484Z,11.60
2018-10-03T05:37:20.937Z,11.50
2018-10-03T05:39:49.416Z,11.50
2018-10-03T05:42:17.853Z,11.40
2018-10-03T05:44:46.267Z,11.40
2018-10-03T05:47:14.728Z,11.30
2018-10-03T05:49:43.171Z,11.40
2018-10-03T05:52:11.657Z,11.30
2018-10-03T05:54:40.147Z,11.20
2018-10-03T05:57:08.599Z,11.20
2018-10-03T05:59:37.072Z,11.20
2018-10-03T06:02:05.658Z,11.10
2018-10-03T06:04:34.119Z,11.10
2018-10-03T06:07:02.523Z,11.00
2018-10-03T06:09:31.607Z,11.00
2018-10-03T06:12:00.079Z,11.00
2018-10-03T06:14:28.518Z,11.00
2018-10-03T06:16:56.935Z,10.90
2018-10-03T06:19:25.367Z,10.90
2018-10-03T06:21:53.840Z,10.90
2018-10-03T06:24:22.330Z,10.90
2018-10-03T06:26:50.767Z,10.90
2018-10-03T06:29:19.236Z,11.00
2018-10-03T06:31:47.710Z,11.00
2018-10-03T06:34:16.173Z,11.00
2018-10-03T06:36:44.646Z,11.00
2018-10-03T06:39:13.150Z,10.90
2018-10-03T06:41:41.876Z,11.00
2018-10-03T06:44:11.006Z,11.00
2018-10-03T06:46:39.409Z,11.00
2018-10-03T06:49:07.869Z,11.00
2018-10-03T06:51:37.261Z,11.20
2018-10-03T06:54:05.735Z,11.20
2018-10-03T06:56:34.167Z,11.20
2018-10-03T06:59:02.668Z,11.30
2018-10-03T07:01:31.168Z,11.30
2018-10-03T07:03:59.620Z,11.30
2018-10-03T07:06:28.055Z,11.30
2018-10-03T07:08:56.522Z,11.30
2018-10-03T07:11:24.966Z,11.30
2018-10-03T07:13:53.409Z,11.30
2018-10-03T07:16:21.951Z,11.40
2018-10-03T07:18:50.395Z,11.50
2018-10-03T07:21:18.851Z,11.60
2018-10-03T07:23:47.343Z,11.60
2018-10-03T07:26:16.778Z,11.70
2018-10-03T07:28:45.210Z,11.70
2018-10-03T07:31:13.633Z,11.70
2018-10-03T07:33:42.066Z,11.80
2018-10-03T07:36:10.537Z,11.80
2018-10-03T07:38:38.991Z,11.90
2018-10-03T07:41:07.430Z,11.90
2018-10-03T07:43:35.925Z,12.00
2018-10-03T07:46:04.414Z,12.00
2018-10-03T07:48:32.889Z,12.10
2018-10-03T07:51:01.350Z,12.10
2018-10-03T07:53:29.859Z,12.20
2018-10-03T07:55:58.306Z,12.20
2018-10-03T07:58:26.726Z,12.30
2018-10-03T08:00:55.206Z,12.40
2018-10-03T08:03:23.650Z,12.50
2018-10-03T08:05:52.785Z,12.60
2018-10-03T08:08:21.219Z,12.70
2018-10-03T08:10:49.638Z,12.80
2018-10-03T08:13:18.069Z,12.70
2018-10-03T08:15:46.499Z,12.70
2018-10-03T08:18:14.936Z,12.70
2018-10-03T08:20:43.341Z,12.60
2018-10-03T08:23:11.813Z,12.60
2018-10-03T08:25:40.320Z,12.70
2018-10-03T08:28:08.799Z,12.70
2018-10-03T08:30:37.234Z,12.70
2018-10-03T08:33:05.848Z,12.80
2018-10-03T08:35:34.256Z,12.90
2018-10-03T08:41:01.981Z,12.90
2018-10-03T08:43:30.393Z,12.90
2018-10-03T08:45:58.815Z,13.00
2018-10-03T08:48:27.243Z,13.00
2018-10-03T08:50:55.693Z,13.10
2018-10-03T08:53:24.553Z,13.10
2018-10-03T08:55:52.973Z,13.20
2018-10-03T08:58:21.498Z,13.30
2018-10-03T09:00:49.835Z,13.40
2018-10-03T09:03:18.326Z,13.40
2018-10-03T09:05:46.782Z,13.50
2018-10-03T09:08:16.310Z,13.50
2018-10-03T09:10:46.117Z,13.50
2018-10-03T09:13:15.022Z,13.60
2018-10-03T09:15:43.494Z,13.60
2018-10-03T09:18:11.979Z,13.70
2018-10-03T09:20:40.420Z,13.70
2018-10-03T09:23:09.114Z,13.70
2018-10-03T09:25:39.756Z,13.70
2018-10-03T09:28:08.245Z,13.80
2018-10-03T09:30:36.665Z,13.90
2018-10-03T09:33:05.127Z,14.00
2018-10-03T09:35:33.595Z,14.10
2018-10-03T09:38:02.028Z,14.20
2018-10-03T09:40:31.025Z,14.30
2018-10-03T09:42:59.504Z,14.40
2018-10-03T09:45:27.950Z,14.40
2018-10-03T09:47:56.381Z,14.40
2018-10-03T09:50:24.830Z,14.50
2018-10-03T09:52:53.306Z,14.40
2018-10-03T09:55:22.181Z,14.50
2018-10-03T09:57:50.651Z,14.50
2018-10-03T10:00:24.331Z,14.60
2018-10-03T10:02:52.765Z,14.60
2018-10-03T10:05:21.193Z,14.70
2018-10-03T10:07:49.651Z,14.70
2018-10-03T10:10:24.773Z,14.70
2018-10-03T10:12:53.142Z,14.70
2018-10-03T10:15:21.573Z,14.70
2018-10-03T10:17:50.029Z,14.70
2018-10-03T10:20:18.663Z,14.70
2018-10-03T10:22:47.107Z,14.80
2018-10-03T10:25:15.530Z,14.80
2018-10-03T10:27:43.973Z,14.80
2018-10-03T10:30:12.470Z,14.70
2018-10-03T10:32:40.943Z,14.60
2018-10-03T10:35:09.446Z,14.60
2018-10-03T10:37:38.173Z,14.70
2018-10-03T10:40:07.227Z,14.80
2018-10-03T10:42:35.670Z,14.90
2018-10-03T10:45:04.140Z,15.00
2018-10-03T10:47:32.612Z,15.10
2018-10-03T10:50:01.085Z,15.10
2018-10-03T10:52:29.631Z,15.20
2018-10-03T10:54:58.068Z,15.10
2018-10-03T10:57:26.509Z,14.90
2018-10-03T10:59:55.419Z,14.90
2018-10-03T11:02:24.152Z,14.80
2018-10-03T11:04:52.621Z,14.90
2018-10-03T11:07:21.070Z,14.80
2018-10-03T11:09:49.579Z,14.90
2018-10-03T11:12:18.062Z,14.90
2018-10-03T11:14:46.530Z,14.80
2018-10-03T11:17:14.983Z,14.80
2018-10-03T11:19:43.442Z,14.90
2018-10-03T11:22:11.911Z,14.80
2018-10-03T11:24:40.508Z,14.70
2018-10-03T11:27:08.838Z,14.80
2018-10-03T11:29:37.395Z,14.90
2018-10-03T11:32:05.950Z,14.90
2018-10-03T11:34:34.420Z,15.00
2018-10-03T11:37:02.930Z,15.00
2018-10-03T11:39:31.371Z,15.00
2018-10-03T11:41:59.907Z,15.00
2018-10-03T11:44:28.501Z,15.10
2018-10-03T11:46:56.929Z,15.20
2018-10-03T11:49:25.394Z,15.30
2018-10-03T11:51:53.863Z,15.40
2018-10-03T11:54:22.377Z,15.50
2018-10-03T11:56:50.851Z,15.60
2018-10-03T11:59:19.877Z,15.60
2018-10-03T12:01:48.545Z,15.50
2018-10-03T12:04:17.006Z,15.40
2018-10-03T12:06:45.735Z,15.30
2018-10-03T12:09:14.192Z,15.30
2018-10-03T12:11:42.722Z,15.30
2018-10-03T12:14:11.431Z,15.40
2018-10-03T12:16:40.318Z,15.40
2018-10-03T12:19:08.873Z,15.50
2018-10-03T12:21:37.331Z,15.60
2018-10-03T12:24:05.806Z,15.60
2018-10-03T12:26:34.488Z,15.70
2018-10-03T12:29:02.943Z,15.80
2018-10-03T12:31:33.963Z,15.90
2018-10-03T12:34:02.471Z,15.90
2018-10-03T12:36:31.020Z,15.90
2018-10-03T12:38:59.447Z,15.90
2018-10-03T12:41:27.887Z,15.90
2018-10-03T12:43:56.366Z,15.90
2018-10-03T12:46:24.946Z,16.00
2018-10-03T12:48:53.714Z,16.00
2018-10-03T12:51:22.129Z,16.00
2018-10-03T12:53:50.574Z,15.90
2018-10-03T12:56:19.095Z,15.80
2018-10-03T12:58:47.665Z,15.60
2018-10-03T13:01:16.177Z,15.60
2018-10-03T13:03:44.546Z,15.60
2018-10-03T13:06:13.003Z,15.60
2018-10-03T13:08:41.427Z,15.60
2018-10-03T13:11:09.940Z,15.60
2018-10-03T13:13:38.377Z,15.60
2018-10-03T13:16:06.930Z,15.70
2018-10-03T13:18:35.560Z,15.70
2018-10-03T13:21:04.002Z,15.70
2018-10-03T13:23:33.152Z,15.70
2018-10-03T13:26:01.599Z,15.80
2018-10-03T13:28:30.025Z,15.70
2018-10-03T13:30:58.473Z,15.80
2018-10-03T13:33:26.907Z,15.80
2018-10-03T13:35:55.448Z,16.00
2018-10-03T13:38:23.866Z,16.00
2018-10-03T13:40:52.361Z,16.10
2018-10-03T13:43:20.779Z,16.20
2018-10-03T13:45:49.229Z,16.30
2018-10-03T13:48:18.146Z,16.30
2018-10-03T13:50:47.228Z,16.30
2018-10-03T13:53:15.642Z,16.20
2018-10-03T13:55:44.120Z,16.10
2018-10-03T13:58:12.606Z,15.90
2018-10-03T14:00:41.060Z,15.80
2018-10-03T14:03:09.537Z,15.70
2018-10-03T14:05:37.975Z,15.70
2018-10-03T14:08:06.733Z,15.70
2018-10-03T14:10:35.195Z,15.70
2018-10-03T14:13:03.715Z,15.60
2018-10-03T14:15:32.162Z,15.60
2018-10-03T14:18:00.629Z,15.70
2018-10-03T14:20:29.090Z,15.60
2018-10-03T14:22:57.599Z,15.60
2018-10-03T14:25:26.296Z,15.50
2018-10-03T14:27:54.798Z,15.40
2018-10-03T14:30:23.265Z,15.40
2018-10-03T14:32:51.724Z,15.40
2018-10-03T14:35:20.131Z,15.40
2018-10-03T14:37:48.602Z,15.30
2018-10-03T14:40:17.130Z,15.30
2018-10-03T14:42:45.582Z,15.30
2018-10-03T14:45:14.075Z,15.30
2018-10-03T14:47:42.505Z,15.30
2018-10-03T14:50:10.959Z,15.30
2018-10-03T14:52:39.408Z,15.40
2018-10-03T14:55:07.868Z,15.50
2018-10-03T14:57:36.325Z,15.60
2018-10-03T15:00:05.285Z,15.60
2018-10-03T15:02:33.792Z,15.50
2018-10-03T15:05:02.228Z,15.50
2018-10-03T15:07:30.892Z,15.50
2018-10-03T15:09:59.343Z,15.40
2018-10-03T15:12:27.754Z,15.40
2018-10-03T15:14:56.267Z,15.50
2018-10-03T15:17:24.742Z,15.50
2018-10-03T15:19:53.221Z,15.60
2018-10-03T15:22:21.731Z,15.60
2018-10-03T15:24:50.237Z,15.70
2018-10-03T15:27:18.694Z,15.70
2018-10-03T15:29:47.257Z,15.60
2018-10-03T15:32:15.665Z,15.70
2018-10-03T15:34:44.245Z,15.70
2018-10-03T15:37:12.698Z,15.60
2018-10-03T15:39:41.238Z,15.60
2018-10-03T15:42:09.757Z,15.50
2018-10-03T15:44:38.198Z,15.60
2018-10-03T15:47:06.674Z,15.60
2018-10-03T15:49:35.149Z,15.60
2018-10-03T15:52:03.743Z,15.70
2018-10-03T15:54:32.190Z,15.60
2018-10-03T15:57:00.699Z,15.60
2018-10-03T15:59:29.148Z,15.60
2018-10-03T16:01:57.589Z,15.70
2018-10-03T16:04:26.043Z,15.70
2018-10-03T16:06:54.633Z,15.60
2018-10-03T16:09:23.157Z,15.60
2018-10-03T16:11:51.588Z,15.70
2018-10-03T16:14:20.063Z,15.80
2018-10-03T16:16:48.718Z,15.80
